Time;durP1;ratioP1;P1;durP2;ratioP2;P2;SDS_P1;SDS_P2;PMS_P1;PMS_P2;Temp;Humidity;BMP_temperature;BMP_pressure;BME280_temperature;BME280_humidity;BME280_pressure;Samples;Min_cycle;Max_cycle;Signal;HPM_P1;HPM_P2
2022/04/23 00:01:57;;;;;;;2.87;1.20;;;11.20;99.90;;;;;;5033007;28;20564;-76
2022/04/23 00:04:22;;;;;;;1.30;1.07;;;11.20;99.90;;;;;;5032860;28;20171;-76
2022/04/23 00:06:48;;;;;;;1.30;1.20;;;11.20;99.90;;;;;;5032501;28;20469;-76
2022/04/23 00:09:13;;;;;;;0.93;0.83;;;11.20;99.90;;;;;;5032846;28;20263;-76
2022/04/23 00:11:39;;;;;;;1.87;1.60;;;11.30;99.90;;;;;;5033036;28;20183;-76
2022/04/23 00:14:05;;;;;;;2.80;1.77;;;11.30;99.90;;;;;;5032791;28;20168;-76
2022/04/23 00:16:30;;;;;;;1.23;0.97;;;11.20;99.90;;;;;;5031220;28;20804;-76
2022/04/23 00:18:56;;;;;;;0.90;0.80;;;11.30;99.90;;;;;;5032284;28;20167;-75
2022/04/23 00:21:22;;;;;;;2.87;1.00;;;11.30;99.90;;;;;;5048331;28;20530;-76
2022/04/23 00:23:48;;;;;;;1.73;1.57;;;11.30;99.90;;;;;;5032407;28;20164;-75
2022/04/23 00:26:14;;;;;;;1.83;1.73;;;11.20;99.90;;;;;;5032185;28;20196;-75
2022/04/23 00:28:39;;;;;;;1.13;0.80;;;11.20;99.90;;;;;;5032479;28;20395;-75
2022/04/23 00:31:05;;;;;;;2.00;0.93;;;11.20;99.90;;;;;;5032497;28;20428;-76
2022/04/23 00:33:34;;;;;;;1.33;1.23;;;11.20;99.90;;;;;;5032292;28;20164;-76
2022/04/23 00:35:59;;;;;;;1.00;0.73;;;11.20;99.90;;;;;;5030877;28;20477;-76
2022/04/23 00:38:25;;;;;;;4.03;1.93;;;11.20;99.90;;;;;;5032282;28;20433;-75
2022/04/23 00:40:51;;;;;;;1.33;1.20;;;11.10;99.90;;;;;;5032287;28;20191;-75
2022/04/23 00:43:27;;;;;;;1.13;1.03;;;11.10;99.90;;;;;;5032308;28;20409;-76
2022/04/23 00:45:54;;;;;;;1.30;1.13;;;11.10;99.90;;;;;;5046559;28;20195;-76
2022/04/23 00:48:21;;;;;;;1.80;1.53;;;11.00;99.90;;;;;;5032226;28;20536;-75
2022/04/23 00:50:50;;;;;;;1.20;0.87;;;11.00;99.90;;;;;;5030757;28;20501;-76
2022/04/23 00:53:16;;;;;;;1.63;0.80;;;11.00;99.90;;;;;;5031180;28;20411;-76
2022/04/23 00:55:43;;;;;;;1.73;1.53;;;10.90;99.90;;;;;;5031943;28;20433;-76
2022/04/23 00:58:08;;;;;;;1.07;0.97;;;10.90;99.90;;;;;;5032032;28;20184;-75
2022/04/23 01:00:34;;;;;;;1.10;0.97;;;10.80;99.90;;;;;;5032009;28;20891;-75
2022/04/23 01:03:00;;;;;;;2.50;1.10;;;10.80;99.90;;;;;;5031965;28;20645;-76
2022/04/23 01:05:26;;;;;;;1.87;0.97;;;10.80;99.90;;;;;;5031689;28;20171;-74
2022/04/23 01:07:52;;;;;;;4.80;1.43;;;10.70;99.90;;;;;;5031919;28;20191;-75
2022/04/23 01:10:19;;;;;;;0.90;0.90;;;10.70;99.90;;;;;;5030681;28;20168;-76
2022/04/23 01:12:46;;;;;;;2.50;1.50;;;10.60;99.90;;;;;;5032027;28;20395;-76
2022/04/23 01:15:13;;;;;;;1.53;0.93;;;10.60;99.90;;;;;;5031605;28;20406;-75
2022/04/23 01:17:41;;;;;;;1.20;1.10;;;10.60;99.90;;;;;;5030612;28;20517;-75
2022/04/23 01:20:07;;;;;;;1.93;1.67;;;10.50;99.90;;;;;;5031831;28;20460;-76
2022/04/23 01:22:35;;;;;;;1.30;1.10;;;10.60;99.90;;;;;;5031867;28;20456;-75
2022/04/23 01:25:04;;;;;;;1.10;0.90;;;10.60;99.90;;;;;;5030260;28;20764;-74
2022/04/23 01:27:30;;;;;;;1.70;1.60;;;10.60;99.90;;;;;;5046986;28;20549;-75
2022/04/23 01:29:56;;;;;;;1.27;0.90;;;10.60;99.90;;;;;;5031686;28;20970;-76
2022/04/23 01:32:22;;;;;;;3.53;1.97;;;10.50;99.90;;;;;;5030435;28;20178;-75
2022/04/23 01:34:47;;;;;;;1.40;0.90;;;10.50;99.90;;;;;;5031503;28;20758;-75
2022/04/23 01:37:13;;;;;;;2.40;2.30;;;10.50;99.90;;;;;;5031441;28;20191;-75
2022/04/23 01:39:39;;;;;;;0.90;0.70;;;10.40;99.90;;;;;;5047073;28;20172;-76
2022/04/23 01:42:05;;;;;;;1.10;0.83;;;10.40;99.90;;;;;;5031866;28;20417;-76
2022/04/23 01:44:31;;;;;;;1.27;1.17;;;10.30;99.90;;;;;;5031915;28;20402;-76
2022/04/23 01:46:56;;;;;;;2.87;2.67;;;10.30;99.90;;;;;;5031294;28;20454;-77
2022/04/23 01:49:22;;;;;;;1.30;1.07;;;10.30;99.90;;;;;;5031923;28;20160;-76
2022/04/23 01:51:47;;;;;;;2.70;1.23;;;10.20;99.90;;;;;;5031638;28;20164;-76
2022/04/23 01:54:13;;;;;;;4.03;2.00;;;10.20;99.90;;;;;;5031554;28;20172;-76
2022/04/23 01:56:39;;;;;;;0.80;0.70;;;10.10;99.90;;;;;;5031450;28;20214;-75
2022/04/23 01:59:04;;;;;;;1.10;1.00;;;10.10;99.90;;;;;;5035438;28;20172;-75
2022/04/23 02:01:30;;;;;;;0.80;0.67;;;10.10;99.90;;;;;;5035104;28;20172;-76
2022/04/23 02:03:55;;;;;;;1.27;0.77;;;10.00;99.90;;;;;;5050570;28;20179;-75
2022/04/23 02:06:21;;;;;;;2.20;1.00;;;10.00;99.90;;;;;;5034667;28;20203;-75
2022/04/23 02:08:46;;;;;;;4.20;1.53;;;9.90;99.90;;;;;;5050512;28;20177;-75
2022/04/23 02:11:12;;;;;;;1.30;1.20;;;9.90;99.90;;;;;;5035212;28;20174;-76
2022/04/23 02:13:37;;;;;;;1.10;0.87;;;9.90;99.90;;;;;;5035379;28;20208;-76
2022/04/23 02:16:04;;;;;;;0.80;0.50;;;9.90;99.90;;;;;;5034903;28;20298;-76
2022/04/23 02:18:30;;;;;;;0.90;0.70;;;9.80;99.90;;;;;;5035223;28;20173;-76
2022/04/23 02:20:57;;;;;;;0.90;0.60;;;9.80;99.90;;;;;;5035201;28;20398;-76
2022/04/23 02:23:23;;;;;;;3.53;2.00;;;9.70;99.90;;;;;;5034818;28;20434;-75
2022/04/23 02:25:48;;;;;;;2.73;1.53;;;9.70;99.90;;;;;;5034614;28;20485;-75
2022/04/23 02:28:14;;;;;;;1.10;1.00;;;9.70;99.90;;;;;;5034709;28;20551;-76
2022/04/23 02:30:39;;;;;;;3.43;1.67;;;9.60;99.90;;;;;;5034721;28;20651;-75
2022/04/23 02:33:05;;;;;;;1.47;1.13;;;9.60;99.90;;;;;;5034765;28;20164;-76
2022/04/23 02:35:34;;;;;;;1.17;1.07;;;9.60;99.90;;;;;;5033449;28;20208;-76
2022/04/23 02:38:01;;;;;;;5.67;1.30;;;9.50;99.90;;;;;;5050260;28;20595;-76
2022/04/23 02:40:31;;;;;;;1.20;0.73;;;9.50;99.90;;;;;;5034859;28;20432;-76
2022/04/23 02:42:57;;;;;;;1.10;0.80;;;9.50;99.90;;;;;;5034604;28;20418;-76
2022/04/23 02:45:25;;;;;;;0.97;0.67;;;9.40;99.90;;;;;;5034522;28;20973;-76
2022/04/23 02:47:55;;;;;;;0.90;0.73;;;9.40;99.90;;;;;;5034425;28;20426;-76
2022/04/23 02:50:38;;;;;;;1.07;0.97;;;9.30;99.90;;;;;;5034441;28;20452;-76
2022/04/23 02:53:05;;;;;;;3.27;1.07;;;9.30;99.90;;;;;;5034089;28;20402;-76
2022/04/23 02:55:34;;;;;;;1.03;0.90;;;9.20;99.90;;;;;;5033996;28;20487;-76
2022/04/23 02:58:08;;;;;;;1.63;1.53;;;9.20;99.90;;;;;;5033089;28;20434;-76
2022/04/23 03:00:34;;;;;;;1.23;0.70;;;9.10;99.90;;;;;;5033077;28;20447;-76
2022/04/23 03:03:00;;;;;;;1.60;1.03;;;9.10;99.90;;;;;;5034453;28;20403;-76
2022/04/23 03:05:26;;;;;;;1.00;0.90;;;9.10;99.90;;;;;;5033879;28;20468;-77
2022/04/23 03:07:53;;;;;;;0.80;0.60;;;9.00;99.90;;;;;;5032407;28;20434;-77
2022/04/23 03:10:19;;;;;;;1.23;1.10;;;9.00;99.90;;;;;;5032650;28;20572;-77
2022/04/23 03:12:45;;;;;;;1.57;1.27;;;9.00;99.90;;;;;;5034090;28;20407;-75
2022/04/23 03:15:13;;;;;;;1.00;0.70;;;8.90;99.90;;;;;;5033607;28;20413;-75
2022/04/23 03:17:39;;;;;;;2.30;0.80;;;8.90;99.90;;;;;;5032500;28;20642;-76
2022/04/23 03:20:07;;;;;;;1.00;0.90;;;8.80;99.90;;;;;;5033788;28;20406;-76
2022/04/23 03:22:33;;;;;;;1.27;1.17;;;8.80;99.90;;;;;;5033698;28;20399;-76
2022/04/23 03:24:59;;;;;;;1.20;1.10;;;8.70;99.90;;;;;;5033546;28;20906;-76
2022/04/23 03:27:24;;;;;;;0.80;0.73;;;8.70;99.90;;;;;;5033512;28;20199;-76
2022/04/23 03:29:50;;;;;;;1.63;1.10;;;8.60;99.90;;;;;;5033676;28;20247;-76
2022/04/23 03:32:16;;;;;;;2.20;1.80;;;8.60;99.90;;;;;;5033625;28;20167;-75
2022/04/23 03:34:41;;;;;;;0.90;0.70;;;8.60;99.90;;;;;;5032398;28;20164;-78
2022/04/23 03:37:07;;;;;;;4.10;1.67;;;8.50;99.90;;;;;;5037390;28;20192;-77
2022/04/23 03:39:33;;;;;;;1.00;0.70;;;8.50;99.90;;;;;;5035837;28;20214;-77
2022/04/23 03:42:01;;;;;;;1.83;1.63;;;8.40;99.90;;;;;;5034851;28;20180;-77
2022/04/23 03:44:28;;;;;;;1.30;1.00;;;8.40;99.90;;;;;;5034051;28;20892;-76
2022/04/23 03:46:54;;;;;;;1.83;0.90;;;8.30;99.90;;;;;;5034008;28;20519;-77
2022/04/23 03:49:22;;;;;;;1.53;1.43;;;8.30;99.90;;;;;;5032501;28;20413;-75
2022/04/23 03:51:47;;;;;;;1.37;0.70;;;8.30;99.90;;;;;;5033008;28;20414;-76
2022/04/23 03:54:14;;;;;;;0.80;0.60;;;8.20;99.90;;;;;;5033020;28;20460;-76
2022/04/23 03:56:40;;;;;;;2.17;2.07;;;8.20;99.90;;;;;;5032902;28;20274;-76
2022/04/23 03:59:07;;;;;;;0.80;0.70;;;8.10;99.90;;;;;;5032138;28;20521;-76
2022/04/23 04:01:33;;;;;;;0.83;0.70;;;8.10;99.90;;;;;;5032830;28;20167;-76
2022/04/23 04:04:00;;;;;;;2.33;2.03;;;8.10;99.90;;;;;;5033036;28;20399;-77
2022/04/23 04:06:26;;;;;;;1.43;1.30;;;8.10;99.90;;;;;;5031207;28;20454;-77
2022/04/23 04:08:53;;;;;;;1.37;1.27;;;8.00;99.90;;;;;;5032922;28;20402;-77
2022/04/23 04:11:18;;;;;;;1.73;0.90;;;8.00;99.90;;;;;;5032937;28;20402;-77
2022/04/23 04:13:44;;;;;;;3.80;0.90;;;8.00;99.90;;;;;;5032840;28;20452;-76
2022/04/23 04:16:09;;;;;;;1.40;1.03;;;8.00;99.90;;;;;;5032373;28;20174;-76
2022/04/23 04:18:35;;;;;;;1.27;0.97;;;8.00;99.90;;;;;;5032803;28;20178;-76
2022/04/23 04:21:01;;;;;;;1.00;0.60;;;7.90;99.90;;;;;;5031693;28;20648;-78
2022/04/23 04:23:27;;;;;;;3.17;2.97;;;7.90;99.90;;;;;;5032650;28;20467;-76
2022/04/23 04:25:53;;;;;;;8.10;3.20;;;7.90;99.90;;;;;;5047623;28;20229;-76
2022/04/23 04:28:20;;;;;;;0.80;0.70;;;7.90;99.90;;;;;;5032492;28;20446;-76
2022/04/23 04:33:30;;;;;;;3.27;1.07;;;7.90;99.90;;;;;;5032452;28;20452;-76
2022/04/23 04:35:56;;;;;;;4.60;4.30;;;7.90;99.90;;;;;;5032194;28;20407;-76
2022/04/23 04:38:21;;;;;;;1.00;0.90;;;7.90;99.90;;;;;;5047529;28;20320;-76
2022/04/23 04:40:47;;;;;;;1.23;0.70;;;7.90;99.90;;;;;;5032408;28;20636;-76
2022/04/23 04:43:12;;;;;;;0.70;0.50;;;7.90;99.90;;;;;;5032176;28;20179;-76
2022/04/23 04:45:38;;;;;;;6.87;0.83;;;7.90;99.90;;;;;;5047297;28;20171;-76
2022/04/23 04:48:05;;;;;;;8.87;1.20;;;7.90;99.90;;;;;;5032112;28;20556;-75
2022/04/23 04:50:31;;;;;;;1.27;0.60;;;7.90;99.90;;;;;;5032220;28;20309;-76
2022/04/23 04:52:57;;;;;;;0.70;0.50;;;7.90;99.90;;;;;;5032151;28;20403;-76
2022/04/23 04:55:23;;;;;;;1.17;1.07;;;7.90;99.90;;;;;;5031685;28;20429;-75
2022/04/23 04:57:49;;;;;;;0.70;0.50;;;8.00;99.90;;;;;;5031949;28;20430;-76
2022/04/23 05:00:15;;;;;;;1.77;1.20;;;8.00;99.90;;;;;;5032111;28;20532;-76
2022/04/23 05:02:41;;;;;;;2.87;1.63;;;8.10;99.90;;;;;;5031924;28;20430;-77
2022/04/23 05:05:07;;;;;;;1.07;0.80;;;8.10;99.90;;;;;;5031925;28;20421;-76
2022/04/23 05:07:33;;;;;;;2.97;1.73;;;8.20;99.90;;;;;;5031872;28;20200;-77
2022/04/23 05:10:00;;;;;;;0.80;0.60;;;8.30;99.90;;;;;;5032001;28;20513;-76
2022/04/23 05:12:26;;;;;;;1.00;0.80;;;8.40;99.90;;;;;;5031961;28;20156;-78
2022/04/23 05:14:52;;;;;;;1.47;0.87;;;8.50;99.90;;;;;;5031885;28;20403;-76
2022/04/23 05:17:17;;;;;;;1.80;1.17;;;8.70;99.90;;;;;;5031421;28;20199;-76
2022/04/23 05:19:43;;;;;;;2.50;1.53;;;8.80;99.90;;;;;;5031858;28;20167;-77
2022/04/23 05:22:09;;;;;;;1.30;1.20;;;8.90;99.90;;;;;;5032072;28;20168;-76
2022/04/23 05:24:34;;;;;;;2.67;2.47;;;9.00;99.90;;;;;;5031988;28;20261;-76
2022/04/23 05:27:00;;;;;;;2.37;2.17;;;9.10;99.90;;;;;;5031574;28;20961;-76
2022/04/23 05:29:25;;;;;;;6.00;3.13;;;9.20;99.90;;;;;;5031873;28;20274;-76
2022/04/23 05:31:51;;;;;;;1.20;1.00;;;9.40;99.90;;;;;;5034033;28;20541;-77
2022/04/23 05:34:16;;;;;;;1.33;1.07;;;9.50;99.90;;;;;;5035805;28;20178;-77
2022/04/23 05:36:42;;;;;;;1.20;1.10;;;9.80;99.90;;;;;;5035474;28;20197;-75
2022/04/23 05:39:07;;;;;;;1.10;0.90;;;10.20;99.90;;;;;;5035662;28;20171;-76
2022/04/23 05:41:33;;;;;;;1.27;1.10;;;10.70;99.90;;;;;;5035696;28;20171;-76
2022/04/23 05:43:58;;;;;;;1.17;0.90;;;11.30;99.90;;;;;;5035521;28;20175;-76
2022/04/23 05:46:24;;;;;;;1.27;1.17;;;11.90;99.90;;;;;;5035158;28;20659;-76
2022/04/23 05:48:49;;;;;;;3.03;2.80;;;12.50;99.90;;;;;;5035673;28;20167;-76
2022/04/23 05:51:15;;;;;;;2.97;2.67;;;13.00;99.90;;;;;;5034165;28;20203;-76
2022/04/23 05:53:41;;;;;;;1.80;1.63;;;13.60;99.90;;;;;;5034106;28;20179;-76
2022/04/23 05:56:07;;;;;;;2.30;2.20;;;14.20;99.90;;;;;;5034987;28;20655;-75
2022/04/23 05:58:36;;;;;;;2.67;2.33;;;14.70;99.90;;;;;;5034110;28;20406;-76
2022/04/23 06:01:02;;;;;;;2.47;2.27;;;15.10;99.90;;;;;;5035202;28;20176;-77
2022/04/23 06:03:28;;;;;;;3.03;2.73;;;15.60;99.90;;;;;;5035331;28;20497;-77
2022/04/23 06:05:54;;;;;;;2.73;2.23;;;16.10;99.90;;;;;;5034812;28;20885;-77
2022/04/23 06:08:20;;;;;;;5.37;2.93;;;16.60;99.90;;;;;;5035099;28;20222;-77
2022/04/23 06:10:45;;;;;;;2.17;1.97;;;17.20;99.90;;;;;;5035018;28;20174;-76
2022/04/23 06:13:11;;;;;;;2.70;1.87;;;17.70;99.90;;;;;;5033890;28;20425;-76
2022/04/23 06:15:37;;;;;;;2.60;1.80;;;18.30;99.90;;;;;;5034696;28;20258;-75
2022/04/23 06:18:02;;;;;;;1.50;1.40;;;18.80;99.90;;;;;;5034993;28;20187;-75
2022/04/23 06:20:28;;;;;;;4.30;1.87;;;19.30;99.90;;;;;;5034823;28;20688;-75
2022/04/23 06:22:54;;;;;;;3.53;2.50;;;19.80;99.90;;;;;;5034912;28;20176;-75
2022/04/23 06:25:19;;;;;;;4.10;3.80;;;20.40;99.90;;;;;;5033329;28;20309;-75
2022/04/23 06:27:45;;;;;;;2.30;2.00;;;20.80;99.90;;;;;;5034640;28;20202;-75
2022/04/23 06:30:11;;;;;;;4.33;3.10;;;21.30;99.60;;;;;;5034754;28;20171;-76
2022/04/23 06:32:39;;;;;;;5.20;3.17;;;21.70;97.20;;;;;;5034667;28;20469;-77
2022/04/23 06:35:06;;;;;;;2.47;2.27;;;22.00;94.20;;;;;;5034651;28;20164;-76
2022/04/23 06:37:43;;;;;;;3.30;2.90;;;22.30;90.60;;;;;;5032989;28;20456;-76
2022/04/23 06:40:11;;;;;;;2.40;2.10;;;22.90;89.70;;;;;;5034605;28;20412;-77
2022/04/23 06:42:37;;;;;;;3.40;3.07;;;23.40;84.50;;;;;;5033379;28;20413;-77
2022/04/23 06:45:03;;;;;;;2.97;2.60;;;23.60;78.60;;;;;;5034523;28;20488;-76
2022/04/23 06:47:28;;;;;;;2.60;2.40;;;23.70;73.00;;;;;;5032808;28;20462;-76
2022/04/23 06:49:57;;;;;;;2.40;2.20;;;23.90;72.10;;;;;;5034600;28;20774;-77
2022/04/23 06:52:23;;;;;;;3.20;2.17;;;24.10;69.60;;;;;;5049578;28;20262;-75
2022/04/23 06:54:48;;;;;;;2.23;2.03;;;24.40;66.40;;;;;;5034133;28;20513;-75
2022/04/23 06:57:14;;;;;;;3.30;1.93;;;24.70;65.10;;;;;;5032652;28;20542;-75
2022/04/23 06:59:39;;;;;;;3.37;2.70;;;24.80;63.50;;;;;;5034272;28;20179;-75
2022/04/23 07:02:05;;;;;;;3.20;1.80;;;25.00;62.70;;;;;;5034217;28;20171;-77
2022/04/23 07:04:31;;;;;;;2.80;1.97;;;25.30;62.00;;;;;;5032917;28;20184;-76
2022/04/23 07:06:57;;;;;;;2.93;2.60;;;25.60;60.00;;;;;;5033853;28;20195;-75
2022/04/23 07:09:22;;;;;;;2.20;2.00;;;25.40;57.70;;;;;;5034327;28;20673;-77
2022/04/23 07:11:48;;;;;;;5.20;2.90;;;24.80;58.00;;;;;;5033933;28;20624;-76
2022/04/23 07:14:13;;;;;;;3.80;3.50;;;24.40;58.80;;;;;;5034000;28;20174;-77
2022/04/23 07:16:40;;;;;;;2.33;1.90;;;24.40;59.10;;;;;;5033589;28;20564;-76
2022/04/23 07:19:07;;;;;;;2.90;2.40;;;24.60;58.50;;;;;;5033906;28;20581;-76
2022/04/23 07:21:34;;;;;;;4.97;3.10;;;25.00;58.50;;;;;;5033901;28;20406;-76
2022/04/23 07:24:03;;;;;;;3.67;2.27;;;25.60;57.60;;;;;;5033698;28;20898;-76
2022/04/23 07:26:29;;;;;;;2.60;2.27;;;26.30;56.80;;;;;;5033397;28;20458;-77
2022/04/23 07:28:55;;;;;;;7.10;1.90;;;26.50;54.50;;;;;;5033762;28;20407;-77
2022/04/23 07:31:21;;;;;;;3.17;2.80;;;26.50;53.80;;;;;;5049216;28;20748;-76
2022/04/23 07:39:14;;;;;;;2.83;2.60;;;27.40;52.20;;;;;;5033812;28;20401;-76
2022/04/23 07:41:40;;;;;;;3.03;2.50;;;27.60;51.00;;;;;;5033603;28;20780;-77
2022/04/23 07:44:06;;;;;;;3.07;2.83;;;27.60;51.00;;;;;;5033446;28;20167;-76
2022/04/23 07:46:31;;;;;;;3.63;3.13;;;27.90;50.30;;;;;;5033168;28;20265;-77
2022/04/23 07:48:58;;;;;;;3.40;2.73;;;28.00;50.10;;;;;;5033391;28;20164;-77
2022/04/23 07:51:26;;;;;;;3.40;2.50;;;27.90;49.20;;;;;;5033390;28;20193;-77
2022/04/23 07:53:53;;;;;;;2.43;2.30;;;28.00;48.50;;;;;;5033110;28;21089;-76
2022/04/23 07:56:18;;;;;;;2.10;1.97;;;28.30;49.30;;;;;;5032968;28;20490;-76
2022/04/23 07:58:44;;;;;;;3.03;2.37;;;28.40;48.20;;;;;;5033129;28;20497;-75
2022/04/23 08:01:09;;;;;;;2.73;2.43;;;28.50;48.30;;;;;;5033280;28;20176;-75
2022/04/23 08:03:35;;;;;;;3.90;2.20;;;28.70;47.90;;;;;;5033070;28;20176;-76
2022/04/23 08:06:00;;;;;;;2.93;2.30;;;29.00;48.20;;;;;;5032866;28;20232;-75
2022/04/23 08:08:26;;;;;;;3.10;2.80;;;29.40;47.30;;;;;;5033096;28;20183;-75
2022/04/23 08:10:52;;;;;;;3.00;2.77;;;29.90;45.70;;;;;;5031604;28;20167;-76
2022/04/23 08:13:17;;;;;;;3.30;3.00;;;30.10;45.70;;;;;;5032886;28;20681;-75
2022/04/23 08:15:43;;;;;;;2.13;1.93;;;30.30;45.10;;;;;;5032822;28;20167;-76
2022/04/23 08:18:08;;;;;;;2.50;2.30;;;30.40;44.70;;;;;;5033015;28;20187;-75
2022/04/23 08:20:34;;;;;;;2.77;2.37;;;30.20;44.00;;;;;;5031752;28;20168;-77
2022/04/23 08:23:00;;;;;;;1.80;1.53;;;30.30;44.80;;;;;;5032686;28;20163;-77
2022/04/23 08:25:25;;;;;;;2.70;2.27;;;30.80;44.60;;;;;;5032724;28;20533;-77
2022/04/23 08:27:54;;;;;;;2.10;1.80;;;31.00;43.40;;;;;;5032555;28;20222;-77
2022/04/23 08:30:36;;;;;;;3.57;2.43;;;31.40;42.70;;;;;;5032828;28;20686;-76
2022/04/23 08:33:03;;;;;;;3.20;2.90;;;32.00;42.30;;;;;;5032660;28;20394;-76
2022/04/23 08:35:30;;;;;;;2.83;2.43;;;32.70;41.10;;;;;;5032351;28;20402;-77
2022/04/23 08:37:55;;;;;;;3.60;2.23;;;32.90;40.80;;;;;;5032348;28;20508;-75
2022/04/23 08:40:22;;;;;;;4.10;2.83;;;33.60;40.90;;;;;;5032703;28;20493;-75
2022/04/23 08:42:47;;;;;;;3.13;2.83;;;34.70;40.20;;;;;;5032713;28;20176;-76
2022/04/23 08:45:13;;;;;;;3.53;2.40;;;35.00;38.20;;;;;;5032464;28;20773;-76
2022/04/23 08:47:47;;;;;;;3.10;2.13;;;35.40;37.10;;;;;;5032351;28;20199;-76
2022/04/23 08:50:13;;;;;;;2.90;2.27;;;35.40;36.60;;;;;;5032910;28;20907;-76
2022/04/23 08:52:48;;;;;;;3.50;2.87;;;35.20;36.70;;;;;;5032746;28;20450;-76
2022/04/23 08:55:16;;;;;;;3.30;3.00;;;34.90;36.20;;;;;;5032402;28;20516;-76
2022/04/23 08:57:43;;;;;;;3.17;2.70;;;35.20;36.50;;;;;;5032116;28;20472;-76
2022/04/23 09:00:12;;;;;;;2.40;2.20;;;35.90;35.70;;;;;;5047842;28;20421;-76
2022/04/23 09:02:37;;;;;;;2.23;2.03;;;36.20;35.40;;;;;;5032462;28;20415;-77
2022/04/23 09:05:04;;;;;;;2.10;1.80;;;36.30;35.20;;;;;;5032365;28;20417;-77
2022/04/23 09:07:30;;;;;;;3.13;2.83;;;37.00;35.20;;;;;;5030444;28;20215;-77
2022/04/23 09:09:58;;;;;;;2.90;2.20;;;37.20;34.60;;;;;;5032346;28;20428;-77
2022/04/23 09:12:26;;;;;;;2.53;2.33;;;37.20;34.30;;;;;;5032233;28;20178;-77
2022/04/23 09:14:53;;;;;;;2.57;2.37;;;37.60;34.20;;;;;;5032286;28;20437;-77
2022/04/23 09:25:41;;;;;;;1.90;1.80;;;39.30;31.80;;;;;;5032051;28;20213;-76
2022/04/23 09:28:24;;;;;;;2.50;2.40;;;39.70;30.80;;;;;;5032107;28;20500;-76
2022/04/23 09:30:51;;;;;;;2.40;2.20;;;39.60;30.60;;;;;;5032271;28;20923;-74
2022/04/23 09:33:18;;;;;;;2.50;2.23;;;39.50;30.20;;;;;;5032408;28;20497;-76
2022/04/23 09:35:59;;;;;;;3.07;2.67;;;39.10;30.20;;;;;;5031801;28;20414;-76
2022/04/23 09:38:26;;;;;;;3.50;3.20;;;38.90;30.20;;;;;;5032017;28;20429;-76
2022/04/23 09:41:15;;;;;;;3.00;2.67;;;39.40;30.60;;;;;;5030582;28;20429;-76
2022/04/23 09:43:41;;;;;;;4.50;2.60;;;39.80;30.40;;;;;;5031845;28;20414;-76
2022/04/23 09:46:08;;;;;;;2.63;2.43;;;39.90;29.80;;;;;;5031317;28;20558;-76
2022/04/23 09:48:38;;;;;;;3.00;2.70;;;40.30;29.50;;;;;;5032047;28;20781;-76
2022/04/23 09:51:05;;;;;;;3.10;2.73;;;40.50;29.40;;;;;;5031953;28;20402;-76
2022/04/23 09:53:30;;;;;;;3.00;2.70;;;40.70;29.40;;;;;;5031690;28;20415;-76
2022/04/23 09:56:04;;;;;;;3.03;2.60;;;40.60;29.30;;;;;;5031247;28;20437;-76
2022/04/23 09:58:31;;;;;;;2.50;2.30;;;40.90;29.20;;;;;;5031503;28;20711;-76
2022/04/23 10:00:58;;;;;;;2.70;2.50;;;41.60;29.40;;;;;;5031477;28;20432;-77
2022/04/23 10:03:33;;;;;;;2.63;2.33;;;42.40;29.50;;;;;;5031692;28;20402;-77
2022/04/23 10:06:01;;;;;;;2.73;2.53;;;43.40;28.30;;;;;;5031205;28;20406;-77
2022/04/23 10:08:33;;;;;;;2.07;1.93;;;43.60;27.50;;;;;;5031560;28;20475;-77
2022/04/23 10:11:30;;;;;;;2.97;2.77;;;43.40;27.50;;;;;;5031620;28;20402;-77
2022/04/23 10:14:03;;;;;;;2.43;2.30;;;43.40;27.20;;;;;;5031384;28;20403;-77
2022/04/23 10:16:33;;;;;;;3.03;2.73;;;43.50;27.50;;;;;;5031303;28;20935;-74
2022/04/23 10:18:59;;;;;;;2.63;2.40;;;43.80;27.40;;;;;;5033657;28;20891;-75
2022/04/23 10:21:34;;;;;;;2.53;2.33;;;43.50;27.00;;;;;;5034758;28;20413;-76
2022/04/23 10:24:22;;;;;;;1.90;1.80;;;42.80;27.10;;;;;;5033567;28;20425;-77
2022/04/23 10:26:49;;;;;;;2.43;2.23;;;42.40;27.20;;;;;;5034566;28;20607;-76
2022/04/23 10:29:23;;;;;;;2.50;2.23;;;41.70;27.60;;;;;;5034846;28;20434;-76
2022/04/23 10:32:11;;;;;;;2.63;2.43;;;41.10;27.50;;;;;;5033359;28;20907;-76
2022/04/23 10:34:37;;;;;;;2.23;2.03;;;40.20;27.70;;;;;;5034535;28;20664;-76
2022/04/23 10:37:27;;;;;;;3.67;3.17;;;39.40;28.50;;;;;;5034379;28;20450;-77
2022/04/23 10:39:52;;;;;;;2.20;2.00;;;39.00;29.10;;;;;;5034452;28;20464;-76
2022/04/23 10:42:22;;;;;;;2.70;2.50;;;39.20;29.20;;;;;;5033477;28;20406;-76
2022/04/23 10:44:49;;;;;;;2.50;2.30;;;38.90;29.00;;;;;;5034700;28;20179;-77
2022/04/23 10:47:30;;;;;;;2.60;2.40;;;38.30;28.70;;;;;;5033260;28;20493;-77
2022/04/23 10:50:15;;;;;;;2.10;1.90;;;38.40;29.40;;;;;;5035134;28;20406;-77
2022/04/23 10:52:41;;;;;;;1.80;1.70;;;38.90;29.40;;;;;;5035269;28;20402;-77
2022/04/23 10:55:08;;;;;;;2.87;2.47;;;40.00;29.60;;;;;;5035282;28;20453;-78
2022/04/23 10:57:34;;;;;;;3.00;2.70;;;40.40;28.80;;;;;;5034586;28;20433;-77
2022/04/23 11:00:17;;;;;;;2.57;2.37;;;40.90;28.50;;;;;;5034561;28;21057;-78
2022/04/23 11:02:55;;;;;;;2.87;1.93;;;41.60;28.10;;;;;;5035647;28;20414;-77
2022/04/23 11:13:58;;;;;;;3.60;2.40;;;43.30;26.90;;;;;;5034360;28;20922;-77
2022/04/23 11:16:29;;;;;;;3.37;2.70;;;42.90;26.60;;;;;;5033141;28;20934;-77
2022/04/23 11:18:58;;;;;;;2.67;2.47;;;41.50;26.80;;;;;;5034053;28;20444;-74
2022/04/23 11:21:26;;;;;;;2.27;2.07;;;41.00;27.40;;;;;;5034182;28;20946;-76
2022/04/23 11:23:56;;;;;;;2.50;2.20;;;40.70;27.90;;;;;;5033799;28;20402;-77
2022/04/23 11:26:45;;;;;;;3.17;2.77;;;40.80;27.90;;;;;;5033429;28;20457;-76
2022/04/23 11:29:11;;;;;;;2.23;2.10;;;41.40;27.70;;;;;;5049212;28;20496;-76
2022/04/23 11:31:37;;;;;;;2.00;1.90;;;41.70;27.50;;;;;;5034077;28;20946;-76
2022/04/23 11:34:04;;;;;;;2.40;2.20;;;42.40;27.50;;;;;;5033569;28;20490;-75
2022/04/23 11:36:30;;;;;;;4.40;2.60;;;42.50;26.80;;;;;;5033326;28;20675;-75
2022/04/23 11:38:57;;;;;;;2.90;2.70;;;42.50;26.70;;;;;;5033560;28;20405;-76
2022/04/23 11:41:34;;;;;;;2.50;2.30;;;42.40;26.50;;;;;;5033531;28;20412;-76
2022/04/23 11:47:11;;;;;;;2.60;2.40;;;42.20;26.40;;;;;;5033474;28;21028;-75
2022/04/23 11:49:36;;;;;;;4.80;2.20;;;42.00;26.80;;;;;;5034169;28;20460;-77
2022/04/23 11:52:07;;;;;;;3.93;2.63;;;42.60;26.60;;;;;;5033935;28;20414;-77
2022/04/23 11:54:37;;;;;;;2.80;2.60;;;43.20;26.70;;;;;;5034049;28;20175;-76
2022/04/23 11:57:04;;;;;;;2.27;2.03;;;44.30;27.30;;;;;;5033453;28;20426;-76
2022/04/23 11:59:44;;;;;;;3.00;2.77;;;45.40;26.30;;;;;;5034252;28;20415;-77
2022/04/23 12:02:29;;;;;;;3.00;2.70;;;46.30;25.70;;;;;;5033507;28;20383;-77
2022/04/23 12:04:57;;;;;;;3.13;2.30;;;46.60;25.10;;;;;;5032770;28;20418;-77
2022/04/23 12:07:24;;;;;;;2.10;2.00;;;46.40;24.80;;;;;;5033467;28;20475;-76
2022/04/23 12:09:51;;;;;;;2.67;2.47;;;45.40;24.50;;;;;;5032885;28;20476;-75
2022/04/23 12:12:21;;;;;;;2.57;2.37;;;45.00;25.40;;;;;;5032860;28;20406;-77
2022/04/23 12:14:49;;;;;;;2.20;2.00;;;44.90;25.50;;;;;;5033566;28;20410;-76
2022/04/23 12:17:45;;;;;;;3.37;2.03;;;44.90;25.30;;;;;;5033062;28;20787;-76
2022/04/23 12:20:13;;;;;;;2.73;2.40;;;44.70;25.50;;;;;;5032850;28;20811;-76
2022/04/23 12:22:39;;;;;;;2.63;2.43;;;44.80;25.40;;;;;;5033387;28;20413;-76
2022/04/23 12:25:07;;;;;;;2.90;2.70;;;44.80;25.00;;;;;;5032926;28;20751;-76
2022/04/23 12:27:57;;;;;;;2.63;2.43;;;44.40;24.90;;;;;;5031666;28;21016;-77
2022/04/23 12:42:01;;;;;;;2.10;2.00;;;38.50;27.00;;;;;;5032656;28;20501;-75
2022/04/23 12:44:40;;;;;;;3.50;2.47;;;38.30;27.90;;;;;;5033241;28;20418;-76
2022/04/23 12:47:07;;;;;;;3.00;2.73;;;38.20;28.00;;;;;;5033117;28;20826;-77
2022/04/23 12:49:45;;;;;;;3.07;2.77;;;38.50;27.90;;;;;;5032568;28;20399;-76
2022/04/23 12:52:22;;;;;;;2.83;2.23;;;38.00;27.90;;;;;;5032615;28;20430;-76
2022/04/23 12:55:17;;;;;;;2.83;2.63;;;37.40;28.00;;;;;;5032260;28;20433;-76
2022/04/23 12:57:50;;;;;;;2.37;2.17;;;37.50;28.40;;;;;;5032049;28;20422;-76
2022/04/23 13:00:23;;;;;;;4.70;2.60;;;37.80;28.60;;;;;;5032798;28;20394;-77
2022/04/23 13:02:54;;;;;;;3.63;2.13;;;37.90;28.20;;;;;;5032558;28;20410;-76
2022/04/23 13:05:20;;;;;;;2.03;1.93;;;37.90;28.60;;;;;;5032379;28;20800;-77
2022/04/23 13:10:31;;;;;;;2.23;2.03;;;37.90;28.90;;;;;;5033094;28;20425;-75
2022/04/23 13:12:56;;;;;;;1.53;1.43;;;36.70;28.50;;;;;;5030804;28;20398;-76
2022/04/23 13:15:23;;;;;;;2.77;2.57;;;35.90;29.40;;;;;;5031041;28;20915;-77
2022/04/23 13:17:49;;;;;;;2.17;1.97;;;35.60;29.70;;;;;;5030619;28;20191;-75
2022/04/23 13:20:16;;;;;;;1.83;1.67;;;34.70;29.90;;;;;;5032035;28;20490;-77
2022/04/23 13:22:43;;;;;;;2.10;2.00;;;34.40;30.90;;;;;;5032587;28;20170;-76
2022/04/23 13:25:13;;;;;;;2.23;2.10;;;34.50;30.70;;;;;;5032580;28;20434;-76
2022/04/23 13:27:39;;;;;;;1.73;1.60;;;34.80;30.80;;;;;;5031783;28;20446;-75
2022/04/23 13:30:05;;;;;;;4.50;2.17;;;35.20;30.90;;;;;;5030850;28;20922;-76
2022/04/23 13:32:34;;;;;;;2.73;2.43;;;35.70;30.30;;;;;;5032234;28;20409;-76
2022/04/23 13:34:59;;;;;;;1.97;1.77;;;36.20;30.30;;;;;;5032956;28;20460;-76
2022/04/23 13:37:25;;;;;;;2.60;2.40;;;36.60;30.10;;;;;;5032030;28;20433;-76